Detroit, Michigan
Traffic Map
Current Weather Conditions
Detroit, Michigan
Overcast Light Rain
Overcast
55°
Feels Like: 55°
Wind Chill: 55° Ceiling: 4000
Heat Index: 55° Visibility: 6mi
Dew Point: 52° Wind: 20mph
Humidity: 88% Direction: 200° (SSW)
Pressure: 29.98in Gusts: 0mph
Raw Report DataCYQG 201500Z 20017KT 6SM -RA BR FEW029 BKN040 OVC070 13/11 A2998 RMK CF1NS7AC1 CF TR SLP154
Traffic Incident Summary
Active as of:
Severity:
Category:
InformationThere was an issue retrieving the traffic information for this location. Please try a different location or try again shortly.
Advertisements